createdAt,value
2023-03-02T00:01:50.371Z,56.08
2023-03-02T00:04:58.480Z,54.00
2023-03-02T00:08:00.542Z,49.35
2023-03-02T00:11:02.439Z,56.03
2023-03-02T00:14:03.437Z,56.58
2023-03-02T00:17:05.751Z,52.55
2023-03-02T00:20:11.165Z,53.78
2023-03-02T00:23:12.298Z,54.63
2023-03-02T00:26:13.135Z,56.75
2023-03-02T00:29:14.757Z,59.45
2023-03-02T00:32:18.290Z,57.72
2023-03-02T00:35:19.488Z,50.40
2023-03-02T00:38:20.614Z,53.05
2023-03-02T00:41:22.149Z,52.50
2023-03-02T00:44:23.052Z,51.65
2023-03-02T00:47:24.445Z,52.25
2023-03-02T00:50:25.277Z,60.45
2023-03-02T00:53:25.942Z,55.08
2023-03-02T00:56:27.316Z,51.95
2023-03-02T00:59:27.982Z,52.30
2023-03-02T01:02:44.498Z,55.70
2023-03-02T01:05:49.285Z,55.42
2023-03-02T01:08:50.173Z,54.42
2023-03-02T01:11:51.864Z,55.53
2023-03-02T01:14:52.785Z,49.47
2023-03-02T01:17:53.535Z,50.08
2023-03-02T01:21:04.330Z,56.47
2023-03-02T01:24:06.258Z,55.72
2023-03-02T01:27:07.502Z,54.70
2023-03-02T01:30:09.574Z,55.25
2023-03-02T01:33:10.486Z,56.80
2023-03-02T01:36:11.326Z,55.47
2023-03-02T01:39:16.568Z,50.65
2023-03-02T01:42:17.944Z,50.80
2023-03-02T01:45:41.268Z,53.10
2023-03-02T01:49:13.722Z,51.10
2023-03-02T01:52:33.605Z,55.38
2023-03-02T01:55:39.110Z,51.92
2023-03-02T01:58:40.478Z,54.85
2023-03-02T02:01:47.172Z,54.45
2023-03-02T02:04:50.092Z,56.08
2023-03-02T02:07:51.412Z,53.45
2023-03-02T02:10:54.472Z,47.95
2023-03-02T02:14:00.221Z,46.83
2023-03-02T02:17:02.177Z,52.58
2023-03-02T02:20:07.450Z,56.78
2023-03-02T02:23:59.423Z,52.47
2023-03-02T02:27:01.470Z,55.83
2023-03-02T02:30:07.318Z,53.53
2023-03-02T02:33:19.699Z,57.67
2023-03-02T02:36:33.662Z,56.90
2023-03-02T02:39:45.011Z,54.17
2023-03-02T02:42:51.489Z,53.28
2023-03-02T02:45:58.098Z,52.72
2023-03-02T02:49:02.248Z,53.85
2023-03-02T02:52:06.705Z,51.72
2023-03-02T02:55:16.738Z,56.38
2023-03-02T02:58:51.010Z,54.78
2023-03-02T03:01:53.070Z,56.00
2023-03-02T03:05:03.342Z,52.40
2023-03-02T03:08:09.929Z,54.25
2023-03-02T03:11:26.604Z,55.70
2023-03-02T03:14:39.348Z,56.90
2023-03-02T03:17:41.474Z,54.60
2023-03-02T03:20:42.207Z,54.60
2023-03-02T03:23:42.851Z,53.90
2023-03-02T03:26:45.175Z,58.53
2023-03-02T03:29:50.391Z,59.58
2023-03-02T03:32:53.264Z,59.73
2023-03-02T03:35:55.012Z,59.83
2023-03-02T03:38:58.310Z,62.95
2023-03-02T03:41:59.909Z,61.13
2023-03-02T03:45:01.393Z,66.22
2023-03-02T03:48:02.370Z,66.43
2023-03-02T03:51:04.735Z,62.88
2023-03-02T03:54:09.145Z,61.30
2023-03-02T03:57:13.027Z,59.60
2023-03-02T04:00:19.615Z,63.58
2023-03-02T04:03:26.268Z,57.35
2023-03-02T04:06:27.746Z,62.90
2023-03-02T04:09:29.406Z,61.00
2023-03-02T04:12:35.654Z,63.63
2023-03-02T04:15:37.020Z,60.85
2023-03-02T04:18:37.858Z,60.72
2023-03-02T04:21:46.716Z,63.67
2023-03-02T04:24:50.980Z,71.32
2023-03-02T04:27:54.210Z,65.32
2023-03-02T04:30:57.361Z,66.45
2023-03-02T04:34:00.821Z,65.53
2023-03-02T04:37:02.229Z,63.50
2023-03-02T04:40:04.486Z,74.85
2023-03-02T04:43:05.215Z,60.60
2023-03-02T04:46:06.109Z,70.65
2023-03-02T04:49:07.725Z,63.42
2023-03-02T04:52:08.416Z,69.35
2023-03-02T04:55:16.490Z,69.50
2023-03-02T04:58:17.774Z,69.95
2023-03-02T05:01:20.390Z,71.22
2023-03-02T05:04:21.825Z,67.50
2023-03-02T05:07:22.745Z,73.28
2023-03-02T05:10:23.730Z,73.13
2023-03-02T05:13:26.371Z,74.93
2023-03-02T05:16:32.098Z,74.28
2023-03-02T05:19:32.931Z,75.97
2023-03-02T05:22:33.864Z,67.72
2023-03-02T05:25:37.355Z,73.43
2023-03-02T05:28:39.409Z,70.32
2023-03-02T05:31:44.341Z,75.57
2023-03-02T05:34:45.561Z,78.97
2023-03-02T05:37:46.807Z,79.30
2023-03-02T05:40:48.524Z,76.05
2023-03-02T05:43:49.620Z,74.15
2023-03-02T05:46:50.737Z,71.65
2023-03-02T05:49:51.518Z,77.15
2023-03-02T05:52:52.317Z,73.63
2023-03-02T05:55:54.324Z,71.45
2023-03-02T05:58:55.126Z,75.80
2023-03-02T06:01:59.091Z,75.45
2023-03-02T06:05:00.168Z,70.43
2023-03-02T06:08:00.915Z,72.38
2023-03-02T06:11:01.839Z,75.93
2023-03-02T06:14:02.696Z,76.47
2023-03-02T06:17:03.356Z,75.75
2023-03-02T06:20:10.530Z,71.47
2023-03-02T06:23:12.142Z,78.38
2023-03-02T06:26:13.448Z,78.70
2023-03-02T06:29:14.316Z,80.63
2023-03-02T06:32:15.134Z,72.95
2023-03-02T06:35:16.875Z,73.45
2023-03-02T06:38:18.444Z,75.43
2023-03-02T06:41:19.411Z,79.70
2023-03-02T06:44:20.707Z,77.70
2023-03-02T06:47:23.651Z,78.00
2023-03-02T06:50:25.051Z,70.45
2023-03-02T06:53:26.338Z,69.28
2023-03-02T06:56:27.148Z,76.10
2023-03-02T06:59:28.351Z,75.50
2023-03-02T07:02:29.102Z,81.28
2023-03-02T07:05:32.383Z,71.03
2023-03-02T07:08:34.039Z,66.20
2023-03-02T07:11:35.363Z,73.93
2023-03-02T07:14:36.898Z,74.32
2023-03-02T07:17:39.312Z,68.40
2023-03-02T07:20:40.313Z,77.97
2023-03-02T07:23:41.720Z,74.47
2023-03-02T07:26:42.394Z,77.57
2023-03-02T07:29:43.249Z,73.40
2023-03-02T07:32:44.439Z,87.47
2023-03-02T07:35:45.076Z,78.45
2023-03-02T07:38:45.961Z,78.88
2023-03-02T07:41:47.230Z,79.00
2023-03-02T07:44:48.632Z,73.47
2023-03-02T07:47:49.404Z,70.47
2023-03-02T07:50:50.286Z,74.43
2023-03-02T07:53:51.176Z,79.18
2023-03-02T07:56:52.166Z,82.65
2023-03-02T07:59:53.052Z,78.13
2023-03-02T08:02:54.154Z,76.00
2023-03-02T08:05:55.645Z,87.05
2023-03-02T08:08:57.280Z,82.38
2023-03-02T08:11:58.177Z,77.78
2023-03-02T08:14:59.172Z,75.35
2023-03-02T08:18:00.551Z,78.13
2023-03-02T08:21:01.838Z,76.63
2023-03-02T08:24:03.639Z,83.78
2023-03-02T08:27:05.260Z,79.45
2023-03-02T08:30:08.162Z,83.68
2023-03-02T08:33:09.117Z,82.10
2023-03-02T08:36:17.040Z,68.40
2023-03-02T08:39:18.386Z,72.82
2023-03-02T08:42:19.638Z,70.05
2023-03-02T08:45:21.106Z,72.20
2023-03-02T08:48:22.676Z,76.20
2023-03-02T08:51:26.472Z,75.18
2023-03-02T08:54:27.567Z,80.82
2023-03-02T08:57:28.676Z,72.60
2023-03-02T09:00:31.705Z,77.25
2023-03-02T09:03:32.736Z,80.57
2023-03-02T09:06:39.343Z,76.88
2023-03-02T09:09:40.119Z,72.77
2023-03-02T09:12:40.909Z,74.32
2023-03-02T09:15:41.659Z,62.60
2023-03-02T09:18:42.599Z,64.80
2023-03-02T09:21:43.398Z,70.53
2023-03-02T09:24:44.326Z,68.68
2023-03-02T09:27:47.241Z,71.82
2023-03-02T09:30:54.988Z,66.18
2023-03-02T09:36:58.351Z,66.38
2023-03-02T09:39:59.172Z,72.13
2023-03-02T09:43:51.900Z,66.28
2023-03-02T09:47:02.418Z,70.65
2023-03-02T09:50:33.563Z,66.43
2023-03-02T09:53:53.231Z,65.28
2023-03-02T09:56:57.971Z,66.72
2023-03-02T10:00:21.862Z,63.13
2023-03-02T10:03:32.196Z,74.50
2023-03-02T10:06:33.318Z,72.38
2023-03-02T10:09:34.398Z,62.92
2023-03-02T10:12:51.379Z,56.83
2023-03-02T10:16:18.255Z,66.80
2023-03-02T10:19:42.597Z,62.90
2023-03-02T10:22:52.908Z,67.85
2023-03-02T10:26:02.879Z,63.25
2023-03-02T10:29:18.823Z,64.40
2023-03-02T10:32:31.969Z,69.07
2023-03-02T10:35:34.564Z,60.50
2023-03-02T10:38:37.915Z,64.70
2023-03-02T10:41:47.339Z,63.10
2023-03-02T10:44:57.306Z,55.70
2023-03-02T10:48:08.264Z,71.75
2023-03-02T10:51:26.015Z,61.55
2023-03-02T10:54:28.960Z,64.38
2023-03-02T10:57:38.052Z,62.00
2023-03-02T11:00:38.742Z,63.13
2023-03-02T11:03:40.111Z,60.33
2023-03-02T11:06:40.838Z,65.45
2023-03-02T11:09:41.717Z,68.38
2023-03-02T11:12:51.274Z,65.38
2023-03-02T11:16:01.614Z,59.42
2023-03-02T11:19:19.573Z,67.32
2023-03-02T11:23:07.721Z,63.33
2023-03-02T11:26:31.042Z,55.60
2023-03-02T11:29:47.623Z,64.15
2023-03-02T11:33:15.282Z,54.85
2023-03-02T11:36:24.032Z,51.92
2023-03-02T11:40:04.684Z,58.63
2023-03-02T11:43:05.879Z,52.53
2023-03-02T11:46:22.318Z,59.45
2023-03-02T11:49:44.418Z,55.33
2023-03-02T11:52:51.830Z,63.42
2023-03-02T11:59:04.820Z,58.28
2023-03-02T12:02:05.857Z,57.85
2023-03-02T12:05:28.322Z,55.65
2023-03-02T12:08:49.650Z,63.60
2023-03-02T12:12:17.510Z,63.58
2023-03-02T12:15:41.377Z,55.63
2023-03-02T12:18:51.250Z,58.13
2023-03-02T12:22:02.984Z,64.20
2023-03-02T12:25:19.115Z,55.75
2023-03-02T12:28:38.482Z,61.78
2023-03-02T12:31:56.600Z,56.03
2023-03-02T12:35:11.980Z,58.35
2023-03-02T12:38:32.810Z,54.88
2023-03-02T12:41:56.845Z,55.17
2023-03-02T12:45:12.112Z,60.92
2023-03-02T12:48:46.519Z,57.17
2023-03-02T12:52:04.019Z,55.15
2023-03-02T12:55:18.061Z,54.70
2023-03-02T12:58:24.683Z,52.22
2023-03-02T13:01:31.160Z,50.60
2023-03-02T13:04:32.334Z,52.20
2023-03-02T13:07:54.782Z,49.65
2023-03-02T13:11:00.611Z,57.17
2023-03-02T13:14:17.503Z,62.55
2023-03-02T13:17:32.921Z,55.22
2023-03-02T13:20:33.817Z,56.05
2023-03-02T13:23:34.953Z,52.92
2023-03-02T13:26:39.928Z,54.35
2023-03-02T13:29:41.014Z,52.92
2023-03-02T13:32:43.511Z,50.40
2023-03-02T13:35:47.949Z,47.28
2023-03-02T13:38:56.871Z,60.10
2023-03-02T13:42:01.241Z,55.08
2023-03-02T13:45:23.364Z,53.90
2023-03-02T13:48:24.808Z,55.25
2023-03-02T13:51:29.995Z,51.45
2023-03-02T13:54:37.746Z,54.17
2023-03-02T14:00:39.881Z,60.72
2023-03-02T14:03:41.251Z,52.97
2023-03-02T14:06:42.062Z,51.28
2023-03-02T14:09:44.178Z,56.30
2023-03-02T14:12:57.241Z,52.83
2023-03-02T14:15:58.160Z,57.20
2023-03-02T14:18:59.153Z,54.45
2023-03-02T14:21:59.834Z,56.55
2023-03-02T14:25:00.624Z,52.60
2023-03-02T14:28:01.475Z,55.63
2023-03-02T14:31:02.528Z,56.40
2023-03-02T14:34:03.763Z,56.67
2023-03-02T14:37:18.558Z,52.85
2023-03-02T14:40:29.102Z,54.40
2023-03-02T14:43:30.857Z,55.13
2023-03-02T14:46:32.165Z,53.17
2023-03-02T14:49:33.802Z,51.20
2023-03-02T14:52:45.719Z,53.40
2023-03-02T14:55:47.501Z,53.17
2023-03-02T14:58:52.351Z,53.95
2023-03-02T15:01:53.352Z,54.72
2023-03-02T15:04:57.595Z,54.08
2023-03-02T15:07:59.021Z,52.50
2023-03-02T15:10:59.804Z,56.85
2023-03-02T15:14:00.618Z,54.10
2023-03-02T15:17:02.023Z,55.72
2023-03-02T15:20:04.021Z,62.63
2023-03-02T15:23:05.711Z,58.55
2023-03-02T15:26:06.522Z,55.70
2023-03-02T15:29:08.584Z,52.85
2023-03-02T15:32:09.404Z,52.45
2023-03-02T15:35:12.564Z,53.85
2023-03-02T15:38:13.498Z,42.78
2023-03-02T15:41:15.534Z,52.22
2023-03-02T15:44:22.480Z,55.47
2023-03-02T15:47:25.265Z,53.60
2023-03-02T15:50:26.040Z,52.00
2023-03-02T15:53:29.146Z,54.60
2023-03-02T15:56:38.773Z,55.25
2023-03-02T15:59:44.833Z,46.90
2023-03-02T16:02:49.858Z,51.17
2023-03-02T16:05:50.855Z,52.20
2023-03-02T16:08:51.608Z,50.00
2023-03-02T16:11:53.199Z,50.13
2023-03-02T16:14:54.298Z,47.20
2023-03-02T16:17:55.344Z,54.50
2023-03-02T16:20:56.615Z,58.53
2023-03-02T16:24:03.972Z,54.55
2023-03-02T16:30:06.826Z,48.47
2023-03-02T16:33:12.192Z,56.75
2023-03-02T16:36:14.214Z,58.35
2023-03-02T16:39:15.766Z,61.50
2023-03-02T16:42:18.586Z,52.17
2023-03-02T16:45:22.309Z,55.92
2023-03-02T16:48:23.335Z,52.20
2023-03-02T16:51:25.199Z,53.38
2023-03-02T16:54:26.427Z,48.25
2023-03-02T16:57:27.569Z,52.22
2023-03-02T17:00:28.584Z,52.88
2023-03-02T17:03:29.338Z,50.50
2023-03-02T17:06:30.281Z,49.45
2023-03-02T17:09:34.857Z,51.53
2023-03-02T17:12:35.779Z,56.78
2023-03-02T17:15:37.186Z,54.15
2023-03-02T17:18:38.586Z,53.65
2023-03-02T17:21:39.381Z,56.38
2023-03-02T17:24:41.439Z,58.92
2023-03-02T17:27:45.470Z,48.15
2023-03-02T17:30:46.748Z,50.75
2023-03-02T17:33:47.832Z,55.22
2023-03-02T17:36:49.170Z,53.70
2023-03-02T17:39:51.117Z,59.47
2023-03-02T17:42:54.940Z,49.78
2023-03-02T17:45:57.601Z,55.75
2023-03-02T17:49:00.680Z,54.25
2023-03-02T17:52:01.644Z,51.60
2023-03-02T17:55:02.440Z,56.95
2023-03-02T17:58:03.289Z,58.20
2023-03-02T18:01:05.626Z,54.55
2023-03-02T18:04:07.188Z,54.47
2023-03-02T18:07:08.415Z,56.13
2023-03-02T18:10:10.223Z,57.75
2023-03-02T18:13:11.177Z,55.22
2023-03-02T18:16:12.382Z,52.70
2023-03-02T18:19:13.494Z,58.53
2023-03-02T18:22:15.121Z,57.03
2023-03-02T18:25:16.384Z,58.85
2023-03-02T18:28:17.607Z,60.67
2023-03-02T18:31:19.685Z,59.90
2023-03-02T18:34:21.484Z,60.55
2023-03-02T18:37:22.539Z,67.88
2023-03-02T18:40:23.253Z,80.00
2023-03-02T18:43:24.518Z,74.85
2023-03-02T18:46:28.760Z,64.25
2023-03-02T18:49:30.059Z,64.88
2023-03-02T18:52:30.802Z,59.58
2023-03-02T18:55:31.714Z,66.07
2023-03-02T18:58:34.297Z,60.60
2023-03-02T19:01:35.969Z,62.42
2023-03-02T19:04:37.150Z,67.63
2023-03-02T19:07:37.868Z,63.92
2023-03-02T19:10:42.419Z,66.90
2023-03-02T19:13:43.631Z,65.07
2023-03-02T19:16:44.756Z,60.15
2023-03-02T19:19:45.705Z,68.18
2023-03-02T19:22:47.726Z,58.65
2023-03-02T19:25:48.882Z,64.18
2023-03-02T19:28:49.839Z,61.10
2023-03-02T19:31:50.905Z,57.78
2023-03-02T19:34:52.267Z,56.50
2023-03-02T19:37:53.378Z,65.70
2023-03-02T19:40:54.311Z,67.25
2023-03-02T19:43:55.875Z,63.88
2023-03-02T19:46:56.673Z,62.83
2023-03-02T19:49:58.082Z,58.08
2023-03-02T19:52:59.153Z,63.55
2023-03-02T19:56:08.475Z,58.92
2023-03-02T19:59:11.273Z,65.75
2023-03-02T20:02:12.298Z,58.67
2023-03-02T20:05:13.382Z,66.97
2023-03-02T20:08:16.905Z,64.25
2023-03-02T20:11:18.520Z,62.10
2023-03-02T20:14:32.893Z,62.60
2023-03-02T20:17:34.704Z,60.85
2023-03-02T20:20:36.269Z,54.45
2023-03-02T20:23:37.896Z,60.63
2023-03-02T20:26:38.690Z,63.25
2023-03-02T20:29:43.361Z,69.32
2023-03-02T20:32:45.184Z,66.47
2023-03-02T20:35:47.370Z,68.80
2023-03-02T20:38:56.191Z,64.82
2023-03-02T20:41:58.287Z,66.32
2023-03-02T20:45:00.563Z,60.97
2023-03-02T20:48:02.598Z,65.00
2023-03-02T20:51:04.391Z,64.45
2023-03-02T20:54:06.170Z,67.53
2023-03-02T20:57:08.689Z,66.55
2023-03-02T21:00:20.941Z,59.28
2023-03-02T21:03:22.515Z,62.40
2023-03-02T21:06:23.742Z,64.32
2023-03-02T21:09:25.231Z,61.42
2023-03-02T21:12:26.347Z,68.07
2023-03-02T21:15:28.077Z,65.47
2023-03-02T21:18:28.983Z,61.88
2023-03-02T21:21:40.835Z,66.70
2023-03-02T21:24:42.562Z,68.03
2023-03-02T21:27:45.300Z,63.55
2023-03-02T21:30:46.846Z,68.20
2023-03-02T21:33:49.742Z,68.95
2023-03-02T21:36:53.785Z,74.35
2023-03-02T21:39:55.115Z,78.15
2023-03-02T21:42:57.629Z,75.88
2023-03-02T21:45:58.722Z,65.00
2023-03-02T21:49:00.197Z,60.35
2023-03-02T21:52:00.999Z,67.65
2023-03-02T21:55:01.855Z,56.40
2023-03-02T21:58:02.742Z,60.50
2023-03-02T22:01:04.042Z,66.63
2023-03-02T22:04:05.214Z,67.55
2023-03-02T22:07:06.261Z,61.90
2023-03-02T22:10:08.885Z,72.10
2023-03-02T22:13:26.777Z,60.42
2023-03-02T22:16:36.100Z,55.03
2023-03-02T22:19:38.559Z,66.05
2023-03-02T22:22:39.391Z,69.28
2023-03-02T22:25:41.402Z,68.55
2023-03-02T22:28:42.493Z,66.72
2023-03-02T22:31:50.616Z,68.38
2023-03-02T22:34:55.400Z,63.45
2023-03-02T22:38:11.855Z,62.88
2023-03-02T22:41:19.846Z,60.35
2023-03-02T22:44:20.753Z,71.90
2023-03-02T22:47:22.078Z,65.80
2023-03-02T22:50:27.295Z,62.17
2023-03-02T22:53:33.268Z,68.40
2023-03-02T22:56:43.008Z,69.50
2023-03-02T22:59:44.201Z,69.72
2023-03-02T23:02:46.194Z,71.95
2023-03-02T23:05:51.839Z,68.40
2023-03-02T23:08:56.374Z,70.10
2023-03-02T23:12:13.727Z,73.85
2023-03-02T23:15:21.179Z,66.82
2023-03-02T23:18:32.173Z,69.13
2023-03-02T23:21:41.487Z,70.32
2023-03-02T23:24:42.585Z,72.97
2023-03-02T23:27:43.269Z,68.55
2023-03-02T23:30:44.106Z,68.88
2023-03-02T23:33:45.956Z,79.18
2023-03-02T23:36:47.575Z,65.53
2023-03-02T23:39:48.519Z,76.22
2023-03-02T23:42:49.978Z,75.22
2023-03-02T23:45:51.527Z,70.30
2023-03-02T23:48:53.230Z,77.40
2023-03-02T23:51:54.456Z,71.22
2023-03-02T23:54:55.408Z,67.13
2023-03-02T23:57:56.169Z,68.53
